Latest Coastal Weather Observations for Robe Airport

IDV60701

Issued at 12:21 pm EST Wednesday 23 August 2017 (issued every 10 minutes, with the page automatically refreshed every 10 minutes)

About coastal observations | Map of coastal stations | Coastal observations for VIC | Marine services | Other Formats
Station Details ID: 026105 Name: ROBE AIRFIELD Lat: -37.18 Lon: 139.81 Height: 3.0 m
Data from the previous 72 hours. | See also: Recent months at Robe Airport
Date/Time
EST
Temp
°C
Wind Pressure Rain since
9am
mm
Weather Cloud Vis
km
Sea
Height
m
Swell
Dir  Spd
kts
Gust
kts
hPa Trend Height
m
Period
s
Dir
23/12:00pm 12.8 S 14 18 1019.3 - 7.6 - - - - - - -
23/11:30am 11.1 S 13 19 1018.7 - 7.6 - - - - - - -
23/11:00am 9.9 SSW 15 22 1018.6 - 7.4 - - - - - - -
23/10:45am 10.5 SSW 12 28 1018.4 - 6.6 - - - - - - -
23/10:30am 11.7 SW 6 13 1017.8 - 4.8 - - - - - - -
23/10:00am 11.9 WSW 9 19 1017.8 - 4.0 - - - - - - -
23/09:30am 14.4 WNW 8 10 1017.8 - 5.8 - - - - - - -
23/09:00am 13.7 WNW 7 10 1017.9 - 5.8 - - - - - - -
23/08:30am 12.9 W 7 10 1017.8 - 5.8 - - - - - - -
23/08:00am 12.1 W 8 13 1017.7 - 5.8 - - - - - - -
23/07:30am 12.4 NW 11 15 1017.3 - 5.4 - - - - - - -
23/07:00am 11.8 NW 9 13 1017.3 - 5.4 - - - - - - -
23/06:30am 11.5 WNW 6 9 1017.4 - 5.4 Recent precip. - - - - - -
23/06:00am 11.9 W 8 12 1017.3 - 5.4 - - - - - - -
23/05:30am 12.1 WNW 7 13 1017.3 - 4.6 - - - - - - -
23/05:00am 11.4 W 5 9 1017.5 - 4.6 - - - - - - -
23/04:30am 12.5 WNW 7 13 1017.4 - 4.4 - - - - - - -
23/04:00am 11.9 W 7 11 1017.7 - 4.4 - - - - - - -
23/03:30am 10.8 NW 4 8 1017.9 - 4.4 - - - - - - -
23/03:00am 10.2 NW 4 6 1018.1 - 4.4 - - - - - - -
23/02:30am 11.3 NW 5 8 1018.3 - 4.4 - - - - - - -
23/02:00am 11.3 WNW 7 11 1018.5 - 4.0 - - - - - - -
23/01:30am 12.2 W 6 9 1018.7 - 2.8 - - - - - - -
23/01:00am 11.2 NW 6 9 1018.5 - 2.6 - - - - - - -
23/12:30am 10.0 NNW 5 6 1018.6 - 2.6 Recent precip. - - - - - -
23/12:00am 11.4 NW 7 9 1018.8 - 2.6 - - - - - - -
 
Date/Time
EST
Temp
°C
Wind Pressure Rain since
9am
mm
Weather Cloud Vis
km
Sea
Height
m
Swell
Dir  Spd
kts
Gust
kts
hPa Trend Height
m
Period
s
Dir
22/11:30pm 13.0 WNW 8 12 1019.0 - 2.4 - - - - - - -
22/11:00pm 12.9 WNW 5 8 1019.1 - 2.4 - - - - - - -
22/10:30pm 13.0 WNW 6 8 1019.3 - 2.4 - - - - - - -
22/10:00pm 12.8 WNW 5 7 1019.5 - 2.4 - - - - - - -
22/09:30pm 12.8 WNW 5 8 1019.4 - 2.4 - - - - - - -
22/09:00pm 12.6 WNW 5 8 1019.4 - 2.4 - - - - - - -
22/08:30pm 12.7 W 6 10 1019.2 - 2.4 - - - - - - -
22/08:00pm 12.8 WNW 6 11 1019.0 - 2.4 - - - - - - -
22/07:30pm 12.1 W 5 10 1019.0 - 2.4 - - - - - - -
22/07:00pm 12.0 NW 5 7 1019.0 - 2.4 - - - - - - -
22/06:30pm 12.3 WNW 5 7 1018.9 - 2.4 - - - - - - -
22/06:00pm 12.4 WNW 6 10 1018.6 - 2.4 - - - - - - -
22/05:30pm 12.2 WNW 6 9 1018.8 - 2.4 - - - - - - -
22/05:00pm 12.2 NW 6 8 1018.6 - 2.4 - - - - - - -
22/04:30pm 13.3 NW 8 12 1018.6 - 2.2 - - - - - - -
22/04:00pm 13.1 NW 8 13 1018.4 - 2.2 - - - - - - -
22/03:30pm 13.1 NW 9 13 1018.4 - 2.2 Recent precip. - - - - - -
22/03:00pm 12.6 NW 7 10 1018.4 - 2.2 - - - - - - -
22/02:30pm 13.7 NNW 8 11 1018.4 - 1.2 - - - - - - -
22/02:00pm 13.2 NW 4 8 1018.6 - 1.2 - - - - - - -
22/01:30pm 12.7 NNW 8 14 1018.9 - 0.6 - - - - - - -
22/01:00pm 14.4 NNW 10 16 1019.0 - 0.4 - - - - - - -
22/12:30pm 14.2 NW 9 12 1019.3 - 0.4 Recent precip. - - - - - -
22/12:00pm 13.3 NW 6 7 1019.4 - 0.4 - - - - - - -
22/11:30am 14.1 NW 11 15 1019.8 - 0.0 - - - - - - -
22/11:00am 14.3 NW 10 14 1019.6 - 0.0 - - - - - - -
22/10:30am 14.8 NW 9 12 1019.6 - 0.0 - - - - - - -
22/10:00am 14.8 NW 8 11 1019.4 - 0.0 - - - - - - -
22/09:30am 14.3 NW 6 8 1019.5 - 0.4 - - - - - - -
22/09:00am 13.1 WNW 6 10 1019.6 - 0.4 - - - - - - -
22/08:30am 12.1 W 7 11 1019.3 - 0.4 - - - - - - -
22/08:00am 11.9 W 5 9 1018.9 - 0.4 - - - - - - -
22/07:30am 11.5 W 6 9 1018.8 - 0.4 - - - - - - -
22/07:00am 10.6 WNW 3 4 1018.3 - 0.4 - - - - - - -
22/06:30am 10.8 W 2 3 1018.1 - 0.4 - - - - - - -
22/06:00am 10.9 WNW 5 7 1017.9 - 0.4 - - - - - - -
22/05:30am 10.9 WSW 6 10 1017.8 - 0.4 - - - - - - -
22/05:00am 10.2 W 4 6 1017.4 - 0.4 - - - - - - -
22/04:30am 10.9 WNW 5 7 1017.1 - 0.4 - - - - - - -
22/04:00am 10.6 SW 4 6 1017.1 - 0.4 - - - - - - -
22/03:30am 10.4 WSW 4 6 1017.1 - 0.4 - - - - - - -
22/03:00am 9.2 W 3 5 1017.1 - 0.4 - - - - - - -
22/02:30am 7.6 N 3 4 1017.1 - 0.4 - - - - - - -
22/02:00am 7.9 N 2 3 1017.1 - 0.4 - - - - - - -
22/01:30am 9.1 NNW 4 5 1017.2 - 0.4 - - - - - - -
22/01:00am 9.1 NW 5 8 1017.3 - 0.2 - - - - - - -
22/12:30am 5.8 NNW 3 4 1017.0 - 0.2 - - - - - - -
22/12:00am 4.8 NNW 2 3 1017.0 - 0.2 - - - - - - -
 
Date/Time
EST
Temp
°C
Wind Pressure Rain since
9am
mm
Weather Cloud Vis
km
Sea
Height
m
Swell
Dir  Spd
kts
Gust
kts
hPa Trend Height
m
Period
s
Dir
21/11:30pm 4.7 NNW 3 3 1017.1 - 0.2 - - - - - - -
21/11:00pm 5.1 WSW 2 3 1017.1 - 0.2 - - - - - - -
21/10:30pm 4.0 WSW 2 2 1016.9 - 0.2 - - - - - - -
21/10:00pm 4.8 WSW 2 3 1016.8 - 0.2 - - - - - - -
21/09:30pm 4.7 WSW 2 3 1016.6 - 0.2 - - - - - - -
21/09:00pm 3.2 WSW 1 3 1016.3 - 0.2 - - - - - - -
21/08:30pm 3.9 CALM 0 0 1016.0 - 0.2 - - - - - - -
21/08:00pm 5.5 CALM 0 0 1015.6 - 0.2 - - - - - - -
21/07:30pm 5.5 CALM 0 0 1015.3 - 0.2 - - - - - - -
21/07:00pm 7.3 CALM 0 0 1014.9 - 0.2 - - - - - - -
21/06:30pm 8.8 CALM 0 1 1014.4 - 0.2 - - - - - - -
21/06:00pm 10.8 WSW 3 5 1014.3 - 0.2 - - - - - - -
21/05:30pm 11.6 SW 4 7 1013.6 - 0.2 - - - - - - -
21/05:00pm 12.0 WSW 5 8 1013.1 - 0.2 - - - - - - -
21/04:30pm 12.3 SW 6 9 1012.7 - 0.2 - - - - - - -
21/04:00pm 13.2 WSW 4 5 1012.3 - 0.2 - - - - - - -
21/03:30pm 12.9 SW 6 9 1012.2 - 0.2 - - - - - - -
21/03:00pm 13.4 SSW 6 9 1011.6 - 0.2 - - - - - - -
21/02:30pm 13.9 NW 3 5 1011.4 - 0.2 - - - - - - -
21/02:00pm 13.3 NNW 2 3 1011.0 - 0.2 - - - - - - -
21/01:30pm 12.6 NNW 1 3 1011.0 - 0.2 - - - - - - -
21/01:00pm 11.3 NW 5 8 1011.6 - 0.2 - - - - - - -
21/12:30pm 10.9 N 7 10 1011.7 - 0.2 - - - - - - -
21/12:00pm 10.2 NNE 9 13 1011.6 - 0.2 - - - - - - -
21/11:30am 9.2 NNE 7 10 1011.8 - 0.2 - - - - - - -
21/11:00am 8.6 NE 9 13 1011.5 - 0.0 - - - - - - -
21/10:30am 8.6 NNE 9 13 1011.5 - 0.0 - - - - - - -
21/10:00am 8.6 NNE 9 14 1011.5 - 0.0 - - - - - - -
21/09:30am 8.4 NE 10 15 1011.5 - 3.0 - - - - - - -
21/09:00am 8.0 NE 9 14 1011.3 - 3.0 - - - - - - -
21/08:30am 7.6 NE 7 12 1011.2 - 3.0 - - - - - - -
21/08:00am 7.3 NE 8 12 1011.0 - 3.0 - - - - - - -
21/07:30am 7.1 NE 9 13 1010.5 - 3.0 - - - - - - -
21/07:00am 7.1 NE 10 13 1010.2 - 3.0 - - - - - - -
21/06:30am 6.9 NE 10 14 1010.0 - 3.0 - - - - - - -
21/06:00am 6.8 NE 10 13 1009.8 - 3.0 - - - - - - -
21/05:30am 6.8 NE 10 15 1009.7 - 3.0 - - - - - - -
21/05:00am 6.7 NE 12 15 1009.6 - 3.0 - - - - - - -
21/04:30am 6.7 NE 10 14 1010.1 - 3.0 - - - - - - -
21/04:00am 6.7 NE 11 15 1010.4 - 3.0 - - - - - - -
21/03:30am 6.7 NE 11 17 1010.8 - 2.6 Recent precip. - - - - - -
21/03:00am 6.7 NE 11 16 1011.1 - 2.6 - - - - - - -
21/02:30am 6.7 NE 11 17 1011.5 - 2.4 - - - - - - -
21/02:00am 6.7 NE 12 17 1011.8 - 2.4 - - - - - - -
21/01:30am 6.7 NE 12 17 1012.4 - 2.4 - - - - - - -
21/01:00am 6.8 NNE 11 16 1013.3 - 2.2 - - - - - - -
21/12:30am 6.9 NNE 11 15 1013.5 - 2.0 Recent precip. - - - - - -
21/12:00am 7.2 NNE 10 13 1013.9 - 1.8 - - - - - - -
 
Date/Time
EST
Temp
°C
Wind Pressure Rain since
9am
mm
Weather Cloud Vis
km
Sea
Height
m
Swell
Dir  Spd
kts
Gust
kts
hPa Trend Height
m
Period
s
Dir
20/11:30pm 7.2 NNE 10 13 1014.3 - 1.6 - - - - - - -
20/11:00pm 7.5 N 10 14 1015.1 - 1.4 - - - - - - -
20/10:30pm 7.7 N 11 17 1015.4 - 0.4 - - - - - - -
20/10:00pm 8.4 NE 6 8 1015.3 - 0.2 - - - - - - -
20/09:30pm 8.9 NNE 9 16 1015.2 - 0.0 - - - - - - -
20/09:00pm 8.4 NE 7 13 1015.6 - 0.0 - - - - - - -
20/08:30pm 8.5 ENE 7 9 1015.6 - 0.0 - - - - - - -
20/08:00pm 8.8 ENE 7 9 1015.8 - 0.0 - - - - - - -
20/07:30pm 9.1 ENE 9 13 1015.4 - 0.0 - - - - - - -
20/07:00pm 9.0 E 7 9 1015.6 - 0.0 - - - - - - -
20/06:30pm 9.1 E 7 10 1016.0 - 0.0 - - - - - - -
20/06:00pm 9.2 E 5 7 1016.7 - 0.0 - - - - - - -
20/05:30pm 9.4 E 5 7 1016.9 - 0.0 - - - - - - -
20/05:00pm 9.9 NE 3 4 1017.6 - 0.0 - - - - - - -
20/04:30pm 10.2 NE 4 6 1017.9 - 0.0 - - - - - - -
20/04:00pm 10.5 NNE 6 9 1018.1 - 0.0 - - - - - - -
20/03:30pm 10.9 NNE 8 13 1018.5 - 0.0 - - - - - - -
20/03:00pm 12.3 NNE 9 12 1018.7 - 0.0 - - - - - - -
20/02:30pm 11.4 NE 9 12 1019.1 - 0.0 - - - - - - -
20/02:00pm 10.4 NNE 11 16 1020.1 - 0.0 - - - - - - -
20/01:30pm 9.6 NNE 7 10 1020.5 - 0.0 - - - - - - -
20/01:00pm 9.2 NNE 8 11 1021.2 - 0.0 - - - - - - -

Other Formats:

Comma delimited format used in spreadsheet applications
http://www.bom.gov.au/fwo/IDV60701/IDV60701.95816.axf

JavaScript Object Notation format (JSON) in row-major order
http://www.bom.gov.au/fwo/IDV60701/IDV60701.95816.json